createdAt,value
2022-07-31T00:00:47.946Z,101252.09
2022-07-31T00:03:12.556Z,101252.59
2022-07-31T00:05:39.292Z,101253.59
2022-07-31T00:08:08.065Z,101249.81
2022-07-31T00:10:31.892Z,101248.44
2022-07-31T00:12:55.718Z,101253.16
2022-07-31T00:15:20.231Z,101249.91
2022-07-31T00:17:45.748Z,101244.47
2022-07-31T00:20:13.457Z,101243.06
2022-07-31T00:22:37.658Z,101244.56
2022-07-31T00:25:02.853Z,101243.56
2022-07-31T00:27:26.719Z,101237.75
2022-07-31T00:29:50.587Z,101238.06
2022-07-31T00:32:14.536Z,101241.81
2022-07-31T00:34:38.266Z,101243.84
2022-07-31T00:37:02.347Z,101248.91
2022-07-31T00:39:26.745Z,101240.59
2022-07-31T00:41:52.376Z,101237.66
2022-07-31T00:44:16.273Z,101235.09
2022-07-31T00:46:42.812Z,101236.59
2022-07-31T00:49:08.662Z,101232.16
2022-07-31T00:51:32.442Z,101234.03
2022-07-31T00:53:56.793Z,101234.34
2022-07-31T00:56:20.620Z,101233.81
2022-07-31T00:58:45.738Z,101229.56
2022-07-31T01:01:09.527Z,101224.44
2022-07-31T01:03:33.289Z,101223.06
2022-07-31T01:05:57.052Z,101223.88
2022-07-31T01:08:20.987Z,101216.78
2022-07-31T01:10:55.255Z,101225.06
2022-07-31T01:13:28.388Z,101219.25
2022-07-31T01:15:55.545Z,101215.31
2022-07-31T01:18:19.976Z,101215.63
2022-07-31T01:20:46.356Z,101223.09
2022-07-31T01:23:55.067Z,101216.09
2022-07-31T01:26:56.227Z,101219.81
2022-07-31T01:29:27.524Z,101221.31
2022-07-31T01:32:03.079Z,101231.44
2022-07-31T01:34:35.236Z,101223.47
2022-07-31T01:37:12.512Z,101226.34
2022-07-31T01:39:38.365Z,101232.25
2022-07-31T01:42:06.777Z,101227.97
2022-07-31T01:44:40.487Z,101228.63
2022-07-31T01:47:05.053Z,101227.16
2022-07-31T01:49:30.125Z,101234.00
2022-07-31T01:51:55.008Z,101237.56
2022-07-31T01:54:29.956Z,101232.03
2022-07-31T01:56:55.189Z,101228.63
2022-07-31T01:59:22.884Z,101217.31
2022-07-31T02:02:12.925Z,101227.88
2022-07-31T02:04:38.372Z,101223.28
2022-07-31T02:07:05.539Z,101221.56
2022-07-31T02:09:31.471Z,101222.91
2022-07-31T02:11:57.120Z,101225.91
2022-07-31T02:14:22.271Z,101231.50
2022-07-31T02:16:46.629Z,101222.66
2022-07-31T02:19:18.850Z,101215.38
2022-07-31T02:21:42.812Z,101214.56
2022-07-31T02:24:07.360Z,101226.13
2022-07-31T02:26:33.711Z,101222.00
2022-07-31T02:28:58.479Z,101221.63
2022-07-31T02:31:24.848Z,101222.63
2022-07-31T02:33:49.374Z,101218.91
2022-07-31T02:36:17.931Z,101221.78
2022-07-31T02:38:43.545Z,101221.22
2022-07-31T02:41:08.063Z,101208.69
2022-07-31T02:43:35.005Z,101221.13
2022-07-31T02:46:12.698Z,101216.16
2022-07-31T02:48:38.359Z,101209.56
2022-07-31T02:51:06.439Z,101211.28
2022-07-31T02:53:32.402Z,101208.19
2022-07-31T02:56:01.177Z,101211.63
2022-07-31T02:58:29.096Z,101213.19
2022-07-31T03:01:01.359Z,101201.13
2022-07-31T03:03:26.663Z,101208.44
2022-07-31T03:05:50.360Z,101205.00
2022-07-31T03:08:14.395Z,101200.34
2022-07-31T03:10:42.397Z,101207.16
2022-07-31T03:13:08.139Z,101196.47
2022-07-31T03:15:33.576Z,101200.75
2022-07-31T03:17:57.719Z,101203.19
2022-07-31T03:20:35.216Z,101196.31
2022-07-31T03:22:59.332Z,101197.75
2022-07-31T03:25:23.217Z,101197.75
2022-07-31T03:27:55.779Z,101205.34
2022-07-31T03:30:25.058Z,101201.94
2022-07-31T03:32:50.671Z,101200.41
2022-07-31T03:35:14.440Z,101196.53
2022-07-31T03:37:38.223Z,101201.94
2022-07-31T03:40:02.153Z,101197.38
2022-07-31T03:42:30.008Z,101196.09
2022-07-31T03:44:56.383Z,101201.84
2022-07-31T03:47:20.239Z,101196.97
2022-07-31T03:49:44.520Z,101196.41
2022-07-31T03:52:12.034Z,101192.69
2022-07-31T03:54:36.469Z,101204.81
2022-07-31T03:57:12.093Z,101194.72
2022-07-31T03:59:39.875Z,101200.41
2022-07-31T04:02:14.795Z,101202.72
2022-07-31T04:04:46.620Z,101208.28
2022-07-31T04:07:11.120Z,101207.63
2022-07-31T04:09:34.905Z,101203.31
2022-07-31T04:12:00.767Z,101201.44
2022-07-31T04:14:24.657Z,101207.81
2022-07-31T04:16:48.797Z,101208.09
2022-07-31T04:19:13.960Z,101202.97
2022-07-31T04:21:38.236Z,101198.25
2022-07-31T04:24:02.110Z,101203.97
2022-07-31T04:27:10.743Z,101196.53
2022-07-31T04:29:40.228Z,101201.19
2022-07-31T04:32:05.227Z,101197.88
2022-07-31T04:34:36.093Z,101203.44
2022-07-31T04:37:00.177Z,101193.13
2022-07-31T04:39:23.828Z,101201.50
2022-07-31T04:41:47.599Z,101199.19
2022-07-31T04:44:11.594Z,101202.59
2022-07-31T04:47:01.865Z,101201.84
2022-07-31T04:49:27.945Z,101201.25
2022-07-31T04:51:53.168Z,101197.38
2022-07-31T04:54:16.936Z,101194.59
2022-07-31T04:56:43.863Z,101199.56
2022-07-31T04:59:11.340Z,101207.63
2022-07-31T05:01:38.039Z,101210.25
2022-07-31T05:04:03.160Z,101216.63
2022-07-31T05:06:36.791Z,101218.59
2022-07-31T05:09:05.565Z,101221.94
2022-07-31T05:11:34.467Z,101214.69
2022-07-31T05:14:00.968Z,101212.16
2022-07-31T05:16:25.675Z,101214.00
2022-07-31T05:18:51.614Z,101206.91
2022-07-31T05:21:53.313Z,101209.53
2022-07-31T05:24:43.163Z,101212.50
2022-07-31T05:27:09.728Z,101211.53
2022-07-31T05:29:35.368Z,101215.66
2022-07-31T05:32:00.760Z,101222.59
2022-07-31T05:34:25.841Z,101219.63
2022-07-31T05:36:51.229Z,101220.81
2022-07-31T05:39:17.663Z,101223.16
2022-07-31T05:42:06.776Z,101225.63
2022-07-31T05:45:00.218Z,101230.91
2022-07-31T05:47:23.992Z,101235.38
2022-07-31T05:50:05.395Z,101227.25
2022-07-31T05:52:29.053Z,101228.97
2022-07-31T05:55:13.023Z,101230.16
2022-07-31T05:57:50.347Z,101220.81
2022-07-31T06:00:16.402Z,101217.50
2022-07-31T06:02:41.912Z,101220.00
2022-07-31T06:05:25.843Z,101213.69
2022-07-31T06:07:52.078Z,101213.78
2022-07-31T06:10:18.675Z,101220.41
2022-07-31T06:12:42.493Z,101219.34
2022-07-31T06:15:09.143Z,101218.00
2022-07-31T06:17:43.638Z,101220.63
2022-07-31T06:20:17.127Z,101221.03
2022-07-31T06:22:43.839Z,101220.00
2022-07-31T06:25:09.982Z,101221.81
2022-07-31T06:27:36.620Z,101216.88
2022-07-31T06:30:03.110Z,101215.09
2022-07-31T06:32:28.291Z,101215.72
2022-07-31T06:34:52.009Z,101217.47
2022-07-31T06:37:15.919Z,101219.09
2022-07-31T06:39:54.651Z,101213.63
2022-07-31T06:42:46.408Z,101220.94
2022-07-31T06:45:11.996Z,101225.63
2022-07-31T06:47:49.143Z,101212.34
2022-07-31T06:50:20.834Z,101205.97
2022-07-31T06:52:51.815Z,101210.81
2022-07-31T06:55:15.699Z,101208.91
2022-07-31T06:57:40.032Z,101210.31
2022-07-31T07:00:19.638Z,101218.66
2022-07-31T07:02:45.885Z,101215.41
2022-07-31T07:05:11.691Z,101224.88
2022-07-31T07:07:38.024Z,101216.16
2022-07-31T07:10:04.662Z,101221.34
2022-07-31T07:12:47.297Z,101219.75
2022-07-31T07:15:12.336Z,101213.47
2022-07-31T07:17:36.587Z,101215.44
2022-07-31T07:20:02.678Z,101209.31
2022-07-31T07:22:31.360Z,101212.91
2022-07-31T07:24:56.991Z,101203.91
2022-07-31T07:27:20.811Z,101212.69
2022-07-31T07:29:44.655Z,101205.22
2022-07-31T07:32:08.448Z,101203.09
2022-07-31T07:34:32.192Z,101198.16
2022-07-31T07:36:56.415Z,101196.25
2022-07-31T07:39:28.125Z,101189.66
2022-07-31T07:41:53.431Z,101193.44
2022-07-31T07:44:17.315Z,101194.00
2022-07-31T07:46:41.188Z,101192.00
2022-07-31T07:49:08.213Z,101185.16
2022-07-31T07:51:33.228Z,101177.97
2022-07-31T07:54:06.376Z,101176.91
2022-07-31T07:56:50.563Z,101181.22
2022-07-31T07:59:40.656Z,101176.38
2022-07-31T08:02:28.101Z,101173.03
2022-07-31T08:04:52.145Z,101167.09
2022-07-31T08:07:16.755Z,101175.09
2022-07-31T08:09:40.564Z,101174.50
2022-07-31T08:12:17.444Z,101167.09
2022-07-31T08:15:13.798Z,101174.28
2022-07-31T08:18:00.275Z,101172.31
2022-07-31T08:20:24.529Z,101168.16
2022-07-31T08:22:48.977Z,101163.28
2022-07-31T08:25:15.244Z,101169.84
2022-07-31T08:27:42.973Z,101168.13
2022-07-31T08:30:08.105Z,101167.97
2022-07-31T08:32:32.411Z,101165.84
2022-07-31T08:35:09.668Z,101168.78
2022-07-31T08:37:52.092Z,101167.50
2022-07-31T08:40:19.956Z,101170.44
2022-07-31T08:42:47.278Z,101164.97
2022-07-31T08:45:12.569Z,101166.84
2022-07-31T08:47:48.376Z,101157.56
2022-07-31T08:50:19.696Z,101161.59
2022-07-31T08:52:46.120Z,101166.66
2022-07-31T08:55:57.156Z,101158.00
2022-07-31T08:58:21.124Z,101159.88
2022-07-31T09:00:45.456Z,101150.75
2022-07-31T09:03:09.265Z,101150.09
2022-07-31T09:05:41.784Z,101145.84
2022-07-31T09:08:08.478Z,101137.38
2022-07-31T09:10:39.007Z,101141.66
2022-07-31T09:13:13.810Z,101143.06
2022-07-31T09:15:39.714Z,101140.72
2022-07-31T09:18:03.491Z,101137.31
2022-07-31T09:20:29.852Z,101135.53
2022-07-31T09:23:06.969Z,101132.50
2022-07-31T09:25:32.924Z,101128.66
2022-07-31T09:28:03.704Z,101134.41
2022-07-31T09:30:28.767Z,101131.41
2022-07-31T09:33:16.843Z,101122.41
2022-07-31T09:35:53.915Z,101126.78
2022-07-31T09:38:18.434Z,101124.09
2022-07-31T09:41:55.782Z,101120.03
2022-07-31T09:44:09.522Z,101113.22
2022-07-31T09:46:41.137Z,101116.22
2022-07-31T09:49:07.542Z,101118.19
2022-07-31T09:51:40.784Z,101120.16
2022-07-31T09:54:05.579Z,101120.00
2022-07-31T09:56:49.895Z,101113.59
2022-07-31T09:59:13.700Z,101111.19
2022-07-31T10:01:39.023Z,101111.75
2022-07-31T10:04:04.564Z,101112.91
2022-07-31T10:06:33.651Z,101101.34
2022-07-31T10:08:58.993Z,101100.72
2022-07-31T10:11:39.639Z,101110.28
2022-07-31T10:14:21.855Z,101098.50
2022-07-31T10:16:47.124Z,101096.16
2022-07-31T10:19:36.671Z,101095.47
2022-07-31T10:22:23.052Z,101100.84
2022-07-31T10:24:50.032Z,101100.56
2022-07-31T10:27:17.193Z,101093.09
2022-07-31T10:29:42.984Z,101089.72
2022-07-31T10:32:08.452Z,101084.00
2022-07-31T10:34:37.818Z,101089.19
2022-07-31T10:37:39.987Z,101087.09
2022-07-31T10:40:35.176Z,101094.91
2022-07-31T10:43:24.692Z,101083.63
2022-07-31T10:46:09.290Z,101081.34
2022-07-31T10:48:54.043Z,101084.59
2022-07-31T10:51:51.718Z,101082.34
2022-07-31T10:54:58.187Z,101073.59
2022-07-31T10:57:56.254Z,101075.28
2022-07-31T11:00:35.868Z,101076.66
2022-07-31T11:03:44.372Z,101067.56
2022-07-31T11:06:41.851Z,101066.16
2022-07-31T11:09:28.253Z,101071.34
2022-07-31T11:12:28.473Z,101066.47
2022-07-31T11:15:29.553Z,101065.81
2022-07-31T11:18:28.874Z,101067.91
2022-07-31T11:21:22.360Z,101064.34
2022-07-31T11:23:56.101Z,101062.75
2022-07-31T11:26:32.787Z,101067.69
2022-07-31T11:30:00.627Z,101053.19
2022-07-31T11:31:50.036Z,101053.53
2022-07-31T11:34:13.859Z,101062.97
2022-07-31T11:36:37.698Z,101057.31
2022-07-31T11:39:01.829Z,101048.69
2022-07-31T11:41:30.864Z,101049.88
2022-07-31T11:44:09.489Z,101051.94
2022-07-31T11:46:35.310Z,101053.44
2022-07-31T11:48:59.567Z,101058.03
2022-07-31T11:51:23.820Z,101053.56
2022-07-31T11:53:54.082Z,101048.94
2022-07-31T11:56:22.672Z,101043.91
2022-07-31T11:58:49.747Z,101041.97
2022-07-31T12:01:14.927Z,101038.84
2022-07-31T12:03:40.183Z,101034.25
2022-07-31T12:06:05.609Z,101041.28
2022-07-31T12:08:29.965Z,101039.47
2022-07-31T12:10:54.900Z,101037.53
2022-07-31T12:13:21.357Z,101034.66
2022-07-31T12:16:00.809Z,101044.41
2022-07-31T12:18:26.826Z,101045.38
2022-07-31T12:20:55.192Z,101031.84
2022-07-31T12:23:41.207Z,101031.72
2022-07-31T12:26:05.685Z,101029.63
2022-07-31T12:28:43.712Z,101023.19
2022-07-31T12:31:17.392Z,101023.69
2022-07-31T12:33:45.749Z,101010.88
2022-07-31T12:36:15.189Z,101003.28
2022-07-31T12:38:41.082Z,101002.47
2022-07-31T12:41:09.848Z,101004.81
2022-07-31T12:43:34.880Z,101007.44
2022-07-31T12:46:00.352Z,101011.38
2022-07-31T12:48:24.051Z,101003.03
2022-07-31T12:50:49.324Z,101008.47
2022-07-31T12:53:13.144Z,101000.56
2022-07-31T12:55:36.909Z,101001.16
2022-07-31T12:58:00.839Z,100991.97
2022-07-31T13:00:27.603Z,100993.25
2022-07-31T13:02:51.934Z,100988.81
2022-07-31T13:05:15.899Z,100983.75
2022-07-31T13:07:40.988Z,100984.22
2022-07-31T13:10:20.505Z,100978.63
2022-07-31T13:12:50.229Z,100978.78
2022-07-31T13:15:14.099Z,100973.41
2022-07-31T13:17:42.237Z,100973.91
2022-07-31T13:20:08.781Z,100966.00
2022-07-31T13:22:42.266Z,100958.94
2022-07-31T13:25:07.224Z,100952.31
2022-07-31T13:27:31.011Z,100960.25
2022-07-31T13:29:55.032Z,100949.44
2022-07-31T13:32:18.901Z,100955.78
2022-07-31T13:34:42.595Z,100946.63
2022-07-31T13:37:06.812Z,100942.31
2022-07-31T13:39:32.332Z,100947.41
2022-07-31T13:41:56.136Z,100944.56
2022-07-31T13:44:19.860Z,100943.91
2022-07-31T13:46:43.749Z,100938.72
2022-07-31T13:49:10.585Z,100929.81
2022-07-31T13:51:34.527Z,100924.50
2022-07-31T13:53:58.438Z,100919.03
2022-07-31T13:56:37.523Z,100919.59
2022-07-31T13:59:06.972Z,100908.66
2022-07-31T14:02:04.734Z,100914.81
2022-07-31T14:04:21.333Z,100915.47
2022-07-31T14:06:47.900Z,100912.84
2022-07-31T14:09:11.613Z,100916.72
2022-07-31T14:11:36.787Z,100909.53
2022-07-31T14:14:00.519Z,100911.25
2022-07-31T14:16:24.220Z,100898.34
2022-07-31T14:18:47.937Z,100900.34
2022-07-31T14:21:11.927Z,100898.84
2022-07-31T14:23:40.958Z,100903.09
2022-07-31T14:26:05.223Z,100893.94
2022-07-31T14:28:30.428Z,100897.31
2022-07-31T14:30:54.244Z,100885.59
2022-07-31T14:33:17.942Z,100887.53
2022-07-31T14:35:42.407Z,100890.03
2022-07-31T14:38:06.103Z,100882.50
2022-07-31T14:40:30.917Z,100889.44
2022-07-31T14:42:54.591Z,100883.38
2022-07-31T14:45:19.747Z,100892.56
2022-07-31T14:47:46.407Z,100871.47
2022-07-31T14:50:13.691Z,100875.75
2022-07-31T14:52:41.316Z,100884.84
2022-07-31T14:55:05.799Z,100879.28
2022-07-31T14:57:31.588Z,100888.16
2022-07-31T14:59:55.404Z,100882.66
2022-07-31T15:02:22.767Z,100876.56
2022-07-31T15:04:52.617Z,100884.03
2022-07-31T15:07:39.498Z,100882.84
2022-07-31T15:10:04.931Z,100879.38
2022-07-31T15:12:28.728Z,100877.97
2022-07-31T15:14:52.595Z,100883.44
2022-07-31T15:17:16.236Z,100881.59
2022-07-31T15:19:41.481Z,100877.72
2022-07-31T15:22:09.772Z,100875.50
2022-07-31T15:24:46.838Z,100883.94
2022-07-31T15:27:13.262Z,100881.75
2022-07-31T15:30:06.067Z,100875.56
2022-07-31T15:32:20.866Z,100870.16
2022-07-31T15:34:46.020Z,100872.78
2022-07-31T15:37:09.835Z,100867.84
2022-07-31T15:39:33.634Z,100869.81
2022-07-31T15:41:58.191Z,100869.34
2022-07-31T15:44:21.871Z,100864.28
2022-07-31T15:46:45.679Z,100868.94
2022-07-31T15:49:09.452Z,100854.34
2022-07-31T15:51:34.712Z,100869.47
2022-07-31T15:53:58.401Z,100870.41
2022-07-31T15:56:22.275Z,100860.25
2022-07-31T15:58:45.968Z,100857.03
2022-07-31T16:01:09.745Z,100865.94
2022-07-31T16:03:50.649Z,100861.25
2022-07-31T16:06:17.103Z,100863.28
2022-07-31T16:08:43.704Z,100860.44
2022-07-31T16:11:07.574Z,100860.78
2022-07-31T16:13:36.305Z,100862.25
2022-07-31T16:16:00.112Z,100855.72
2022-07-31T16:18:23.899Z,100856.03
2022-07-31T16:20:48.008Z,100843.03
2022-07-31T16:23:11.737Z,100852.09
2022-07-31T16:25:37.069Z,100851.09
2022-07-31T16:28:00.823Z,100842.91
2022-07-31T16:30:27.304Z,100855.00
2022-07-31T16:32:51.622Z,100846.66
2022-07-31T16:35:15.581Z,100845.47
2022-07-31T16:37:51.740Z,100830.19
2022-07-31T16:40:28.769Z,100840.13
2022-07-31T16:42:56.449Z,100846.97
2022-07-31T16:45:20.389Z,100838.44
2022-07-31T16:47:50.590Z,100840.47
2022-07-31T16:50:15.563Z,100842.81
2022-07-31T16:52:39.285Z,100831.06
2022-07-31T16:55:03.166Z,100840.84
2022-07-31T16:57:26.873Z,100845.31
2022-07-31T16:59:56.869Z,100843.31
2022-07-31T17:02:21.679Z,100839.78
2022-07-31T17:04:45.383Z,100837.78
2022-07-31T17:07:10.027Z,100839.53
2022-07-31T17:09:33.986Z,100838.97
2022-07-31T17:11:58.400Z,100843.13
2022-07-31T17:14:25.404Z,100837.69
2022-07-31T17:16:52.980Z,100845.75
2022-07-31T17:19:41.786Z,100840.13
2022-07-31T17:22:00.726Z,100842.56
2022-07-31T17:24:24.459Z,100838.22
2022-07-31T17:26:50.068Z,100836.88
2022-07-31T17:29:14.181Z,100836.22
2022-07-31T17:31:38.035Z,100840.25
2022-07-31T17:34:07.296Z,100840.47
2022-07-31T17:36:34.050Z,100844.09
2022-07-31T17:38:57.821Z,100841.00
2022-07-31T17:41:24.673Z,100837.88
2022-07-31T17:43:50.615Z,100835.19
2022-07-31T17:46:36.579Z,100844.44
2022-07-31T17:49:09.925Z,100837.34
2022-07-31T17:51:33.692Z,100839.19
2022-07-31T17:53:59.393Z,100845.22
2022-07-31T17:56:23.428Z,100842.38
2022-07-31T17:58:47.195Z,100836.97
2022-07-31T18:01:11.056Z,100836.00
2022-07-31T18:03:34.751Z,100839.75
2022-07-31T18:05:59.846Z,100839.06
2022-07-31T18:08:23.747Z,100843.03
2022-07-31T18:10:54.491Z,100837.41
2022-07-31T18:13:18.569Z,100842.84
2022-07-31T18:15:42.602Z,100851.50
2022-07-31T18:18:06.631Z,100850.81
2022-07-31T18:20:30.340Z,100845.19
2022-07-31T18:22:55.429Z,100841.47
2022-07-31T18:25:19.222Z,100845.16
2022-07-31T18:27:44.173Z,100846.00
2022-07-31T18:30:09.943Z,100837.09
2022-07-31T18:32:33.782Z,100838.78
2022-07-31T18:34:57.744Z,100847.81
2022-07-31T18:37:21.583Z,100840.72
2022-07-31T18:39:47.921Z,100848.91
2022-07-31T18:42:12.933Z,100850.31
2022-07-31T18:44:36.963Z,100851.03
2022-07-31T18:47:00.808Z,100847.31
2022-07-31T18:50:59.456Z,100851.00
2022-07-31T18:52:08.755Z,100844.72
2022-07-31T18:54:32.797Z,100847.84
2022-07-31T18:56:57.923Z,100844.09
2022-07-31T18:59:21.604Z,100844.84
2022-07-31T19:01:45.498Z,100858.72
2022-07-31T19:04:09.332Z,100846.69
2022-07-31T19:06:33.137Z,100856.53
2022-07-31T19:08:57.191Z,100861.06
2022-07-31T19:11:21.109Z,100858.63
2022-07-31T19:13:47.293Z,100864.84
2022-07-31T19:16:11.716Z,100860.69
2022-07-31T19:18:36.204Z,100863.31
2022-07-31T19:21:23.070Z,100865.91
2022-07-31T19:23:44.647Z,100858.59
2022-07-31T19:26:08.514Z,100862.03
2022-07-31T19:28:32.794Z,100857.44
2022-07-31T19:30:57.989Z,100856.81
2022-07-31T19:33:21.825Z,100856.66
2022-07-31T19:35:58.409Z,100858.44
2022-07-31T19:38:24.424Z,100859.81
2022-07-31T19:40:48.431Z,100857.97
2022-07-31T19:43:12.896Z,100863.31
2022-07-31T19:45:58.746Z,100851.88
2022-07-31T19:48:23.371Z,100853.66
2022-07-31T19:50:47.290Z,100847.94
2022-07-31T19:53:11.024Z,100841.22
2022-07-31T19:55:36.189Z,100842.75
2022-07-31T19:58:01.687Z,100836.00
2022-07-31T20:00:25.356Z,100839.44
2022-07-31T20:02:50.543Z,100836.06
2022-07-31T20:05:15.991Z,100836.78
2022-07-31T20:07:39.764Z,100833.84
2022-07-31T20:10:03.529Z,100829.88
2022-07-31T20:12:27.284Z,100825.66
2022-07-31T20:14:50.956Z,100834.78
2022-07-31T20:17:14.752Z,100833.97
2022-07-31T20:20:14.552Z,100829.13
2022-07-31T20:22:23.937Z,100832.31
2022-07-31T20:24:47.612Z,100823.06
2022-07-31T20:27:11.387Z,100828.97
2022-07-31T20:29:35.104Z,100826.69
2022-07-31T20:31:58.924Z,100826.06
2022-07-31T20:34:23.436Z,100830.13
2022-07-31T20:36:47.123Z,100819.78
2022-07-31T20:39:12.311Z,100819.56
2022-07-31T20:41:36.136Z,100813.69
2022-07-31T20:44:00.099Z,100822.16
2022-07-31T20:46:23.820Z,100820.94
2022-07-31T20:48:47.633Z,100818.63
2022-07-31T20:51:15.959Z,100819.91
2022-07-31T20:53:39.672Z,100826.72
2022-07-31T20:56:04.925Z,100820.81
2022-07-31T20:58:29.103Z,100821.00
2022-07-31T21:00:54.445Z,100828.03
2022-07-31T21:03:19.214Z,100829.72
2022-07-31T21:05:43.376Z,100822.94
2022-07-31T21:08:07.621Z,100825.09
2022-07-31T21:10:31.449Z,100818.34
2022-07-31T21:12:56.808Z,100823.25
2022-07-31T21:15:41.670Z,100811.88
2022-07-31T21:18:05.580Z,100821.63
2022-07-31T21:20:49.943Z,100809.38
2022-07-31T21:23:14.344Z,100807.72
2022-07-31T21:25:38.416Z,100803.88
2022-07-31T21:28:04.936Z,100801.56
2022-07-31T21:30:30.076Z,100795.44
2022-07-31T21:32:54.192Z,100797.16
2022-07-31T21:35:37.130Z,100802.66
2022-07-31T21:38:01.482Z,100798.03
2022-07-31T21:40:28.012Z,100797.84
2022-07-31T21:42:57.337Z,100798.09
2022-07-31T21:45:23.890Z,100798.53
2022-07-31T21:47:52.859Z,100800.25
2022-07-31T21:50:27.853Z,100792.91
2022-07-31T21:52:53.191Z,100794.19
2022-07-31T21:55:17.156Z,100788.06
2022-07-31T21:57:59.764Z,100785.09
2022-07-31T22:00:28.452Z,100784.47
2022-07-31T22:02:53.721Z,100780.06
2022-07-31T22:05:35.147Z,100782.16
2022-07-31T22:07:59.019Z,100786.81
2022-07-31T22:10:22.828Z,100788.09
2022-07-31T22:12:46.981Z,100788.31
2022-07-31T22:15:15.476Z,100789.34
2022-07-31T22:17:41.010Z,100795.50
2022-07-31T22:20:07.100Z,100795.91
2022-07-31T22:22:31.959Z,100806.44
2022-07-31T22:24:56.275Z,100815.94
2022-07-31T22:27:37.601Z,100814.63
2022-07-31T22:30:02.023Z,100817.75
2022-07-31T22:32:26.249Z,100811.41
2022-07-31T22:34:51.736Z,100821.09
2022-07-31T22:37:16.263Z,100818.75
2022-07-31T22:39:40.260Z,100821.97
2022-07-31T22:42:04.558Z,100824.72
2022-07-31T22:44:28.891Z,100817.75
2022-07-31T22:46:53.560Z,100820.44
2022-07-31T22:49:18.098Z,100828.06
2022-07-31T22:51:46.455Z,100832.94
2022-07-31T22:54:10.627Z,100822.53
2022-07-31T22:56:34.462Z,100829.28
2022-07-31T22:58:58.268Z,100832.22
2022-07-31T23:01:22.000Z,100835.44
2022-07-31T23:03:45.759Z,100836.06
2022-07-31T23:06:31.010Z,100835.41
2022-07-31T23:08:55.313Z,100832.84
2022-07-31T23:11:19.268Z,100833.03
2022-07-31T23:13:43.057Z,100841.31
2022-07-31T23:16:07.087Z,100842.50
2022-07-31T23:18:30.879Z,100844.44
2022-07-31T23:20:54.920Z,100838.75
2022-07-31T23:23:18.626Z,100842.38
2022-07-31T23:25:44.241Z,100842.38
2022-07-31T23:28:08.050Z,100835.53
2022-07-31T23:30:31.707Z,100832.84
2022-07-31T23:32:56.395Z,100832.16
2022-07-31T23:35:20.167Z,100832.19
2022-07-31T23:37:44.687Z,100826.94
2022-07-31T23:40:09.752Z,100829.03
2022-07-31T23:42:39.880Z,100831.75
2022-07-31T23:45:03.632Z,100825.78
2022-07-31T23:47:46.084Z,100829.59
2022-07-31T23:50:11.055Z,100818.91
2022-07-31T23:52:34.818Z,100817.28
2022-07-31T23:54:58.739Z,100811.41
2022-07-31T23:57:22.570Z,100820.47
2022-07-31T23:59:47.804Z,100816.00
